sensor_id;sensor_type;location;lat;lon;timestamp;P1;durP1;ratioP1;P2;durP2;ratioP2
15043;SDS011;7619;48.562;8.910;2023-08-01T00:01:04;1.40;;;1.30;;
15043;SDS011;7619;48.562;8.910;2023-08-01T00:03:32;2.90;;;1.90;;
15043;SDS011;7619;48.562;8.910;2023-08-01T00:06:00;2.97;;;1.70;;
15043;SDS011;7619;48.562;8.910;2023-08-01T00:08:28;2.10;;;1.73;;
15043;SDS011;7619;48.562;8.910;2023-08-01T00:10:56;1.83;;;1.67;;
15043;SDS011;7619;48.562;8.910;2023-08-01T00:13:24;1.97;;;1.77;;
15043;SDS011;7619;48.562;8.910;2023-08-01T00:15:52;1.63;;;1.40;;
15043;SDS011;7619;48.562;8.910;2023-08-01T00:18:20;3.07;;;1.97;;
15043;SDS011;7619;48.562;8.910;2023-08-01T00:20:48;1.80;;;1.70;;
15043;SDS011;7619;48.562;8.910;2023-08-01T00:23:18;2.33;;;1.83;;
15043;SDS011;7619;48.562;8.910;2023-08-01T00:25:46;2.73;;;2.10;;
15043;SDS011;7619;48.562;8.910;2023-08-01T00:28:16;1.93;;;1.63;;
15043;SDS011;7619;48.562;8.910;2023-08-01T00:30:44;2.43;;;1.40;;
15043;SDS011;7619;48.562;8.910;2023-08-01T00:33:12;5.97;;;2.20;;
15043;SDS011;7619;48.562;8.910;2023-08-01T00:35:41;2.73;;;1.73;;
15043;SDS011;7619;48.562;8.910;2023-08-01T00:38:09;4.47;;;2.40;;
15043;SDS011;7619;48.562;8.910;2023-08-01T00:40:37;2.17;;;1.70;;
15043;SDS011;7619;48.562;8.910;2023-08-01T00:43:05;2.67;;;1.67;;
15043;SDS011;7619;48.562;8.910;2023-08-01T00:45:33;2.13;;;1.63;;
15043;SDS011;7619;48.562;8.910;2023-08-01T00:48:01;3.80;;;1.90;;
15043;SDS011;7619;48.562;8.910;2023-08-01T00:50:30;2.17;;;1.50;;
15043;SDS011;7619;48.562;8.910;2023-08-01T00:52:58;3.53;;;2.17;;
15043;SDS011;7619;48.562;8.910;2023-08-01T00:55:26;2.13;;;1.93;;
15043;SDS011;7619;48.562;8.910;2023-08-01T00:57:55;4.43;;;2.03;;
15043;SDS011;7619;48.562;8.910;2023-08-01T01:00:23;1.90;;;1.80;;
15043;SDS011;7619;48.562;8.910;2023-08-01T01:02:51;1.90;;;1.70;;
15043;SDS011;7619;48.562;8.910;2023-08-01T01:05:19;2.10;;;1.37;;
15043;SDS011;7619;48.562;8.910;2023-08-01T01:07:48;4.47;;;2.00;;
15043;SDS011;7619;48.562;8.910;2023-08-01T01:10:16;3.13;;;2.13;;
15043;SDS011;7619;48.562;8.910;2023-08-01T01:12:44;1.60;;;1.50;;
15043;SDS011;7619;48.562;8.910;2023-08-01T01:15:14;2.20;;;1.80;;
15043;SDS011;7619;48.562;8.910;2023-08-01T01:17:42;2.87;;;1.90;;
15043;SDS011;7619;48.562;8.910;2023-08-01T01:20:10;2.63;;;1.97;;
15043;SDS011;7619;48.562;8.910;2023-08-01T01:22:39;2.90;;;2.03;;
15043;SDS011;7619;48.562;8.910;2023-08-01T01:25:08;2.10;;;1.70;;
15043;SDS011;7619;48.562;8.910;2023-08-01T01:27:37;1.83;;;1.40;;
15043;SDS011;7619;48.562;8.910;2023-08-01T01:30:07;1.77;;;1.67;;
15043;SDS011;7619;48.562;8.910;2023-08-01T01:32:35;2.70;;;2.10;;
15043;SDS011;7619;48.562;8.910;2023-08-01T01:35:03;3.57;;;1.80;;
15043;SDS011;7619;48.562;8.910;2023-08-01T01:37:32;2.13;;;1.70;;
15043;SDS011;7619;48.562;8.910;2023-08-01T01:40:00;3.07;;;2.70;;
15043;SDS011;7619;48.562;8.910;2023-08-01T01:42:28;3.03;;;1.90;;
15043;SDS011;7619;48.562;8.910;2023-08-01T01:44:56;3.20;;;1.90;;
15043;SDS011;7619;48.562;8.910;2023-08-01T01:47:24;3.60;;;1.80;;
15043;SDS011;7619;48.562;8.910;2023-08-01T01:49:52;4.23;;;1.97;;
15043;SDS011;7619;48.562;8.910;2023-08-01T01:52:20;3.17;;;2.40;;
15043;SDS011;7619;48.562;8.910;2023-08-01T01:54:48;2.37;;;2.00;;
15043;SDS011;7619;48.562;8.910;2023-08-01T01:57:16;1.73;;;1.63;;
15043;SDS011;7619;48.562;8.910;2023-08-01T01:59:44;2.10;;;1.80;;
15043;SDS011;7619;48.562;8.910;2023-08-01T02:02:12;3.53;;;2.17;;
15043;SDS011;7619;48.562;8.910;2023-08-01T02:04:41;2.10;;;1.57;;
15043;SDS011;7619;48.562;8.910;2023-08-01T02:07:09;2.27;;;1.63;;
15043;SDS011;7619;48.562;8.910;2023-08-01T02:09:37;2.03;;;1.50;;
15043;SDS011;7619;48.562;8.910;2023-08-01T02:12:06;2.30;;;1.80;;
15043;SDS011;7619;48.562;8.910;2023-08-01T02:14:35;2.50;;;2.00;;
15043;SDS011;7619;48.562;8.910;2023-08-01T02:17:04;2.03;;;1.70;;
15043;SDS011;7619;48.562;8.910;2023-08-01T02:19:32;3.30;;;1.90;;
15043;SDS011;7619;48.562;8.910;2023-08-01T02:22:00;3.53;;;2.27;;
15043;SDS011;7619;48.562;8.910;2023-08-01T02:24:28;4.03;;;2.10;;
15043;SDS011;7619;48.562;8.910;2023-08-01T02:26:56;2.17;;;1.53;;
15043;SDS011;7619;48.562;8.910;2023-08-01T02:29:24;3.50;;;2.17;;
15043;SDS011;7619;48.562;8.910;2023-08-01T02:31:52;2.43;;;1.97;;
15043;SDS011;7619;48.562;8.910;2023-08-01T02:34:21;2.17;;;1.70;;
15043;SDS011;7619;48.562;8.910;2023-08-01T02:36:49;3.03;;;1.87;;
15043;SDS011;7619;48.562;8.910;2023-08-01T02:39:18;2.07;;;1.83;;
15043;SDS011;7619;48.562;8.910;2023-08-01T02:41:47;3.17;;;1.70;;
15043;SDS011;7619;48.562;8.910;2023-08-01T02:44:15;2.23;;;1.77;;
15043;SDS011;7619;48.562;8.910;2023-08-01T02:46:43;3.17;;;1.70;;
15043;SDS011;7619;48.562;8.910;2023-08-01T02:49:11;2.00;;;1.40;;
15043;SDS011;7619;48.562;8.910;2023-08-01T02:51:39;2.50;;;1.60;;
15043;SDS011;7619;48.562;8.910;2023-08-01T02:54:07;2.63;;;1.87;;
15043;SDS011;7619;48.562;8.910;2023-08-01T02:56:35;2.63;;;1.57;;
15043;SDS011;7619;48.562;8.910;2023-08-01T02:59:05;2.07;;;1.83;;
15043;SDS011;7619;48.562;8.910;2023-08-01T03:01:33;4.77;;;2.10;;
15043;SDS011;7619;48.562;8.910;2023-08-01T03:04:01;2.53;;;1.60;;
15043;SDS011;7619;48.562;8.910;2023-08-01T03:06:29;1.77;;;1.63;;
15043;SDS011;7619;48.562;8.910;2023-08-01T03:08:57;2.90;;;1.70;;
15043;SDS011;7619;48.562;8.910;2023-08-01T03:11:26;2.50;;;1.83;;
15043;SDS011;7619;48.562;8.910;2023-08-01T03:13:54;2.27;;;1.50;;
15043;SDS011;7619;48.562;8.910;2023-08-01T03:16:22;2.83;;;1.87;;
15043;SDS011;7619;48.562;8.910;2023-08-01T03:18:50;4.37;;;1.90;;
15043;SDS011;7619;48.562;8.910;2023-08-01T03:21:18;2.27;;;1.70;;
15043;SDS011;7619;48.562;8.910;2023-08-01T03:23:46;2.27;;;1.77;;
15043;SDS011;7619;48.562;8.910;2023-08-01T03:26:14;3.10;;;1.90;;
15043;SDS011;7619;48.562;8.910;2023-08-01T03:28:44;3.10;;;1.83;;
15043;SDS011;7619;48.562;8.910;2023-08-01T03:31:12;2.77;;;1.73;;
15043;SDS011;7619;48.562;8.910;2023-08-01T03:33:40;1.73;;;1.53;;
15043;SDS011;7619;48.562;8.910;2023-08-01T03:36:08;2.23;;;1.40;;
15043;SDS011;7619;48.562;8.910;2023-08-01T03:38:36;3.37;;;2.10;;
15043;SDS011;7619;48.562;8.910;2023-08-01T03:41:05;2.23;;;1.83;;
15043;SDS011;7619;48.562;8.910;2023-08-01T03:43:33;3.10;;;1.83;;
15043;SDS011;7619;48.562;8.910;2023-08-01T03:46:01;1.73;;;1.30;;
15043;SDS011;7619;48.562;8.910;2023-08-01T03:48:29;2.10;;;1.70;;
15043;SDS011;7619;48.562;8.910;2023-08-01T03:50:57;4.63;;;1.70;;
15043;SDS011;7619;48.562;8.910;2023-08-01T03:53:25;2.13;;;1.70;;
15043;SDS011;7619;48.562;8.910;2023-08-01T03:55:53;2.33;;;1.63;;
15043;SDS011;7619;48.562;8.910;2023-08-01T03:58:21;3.33;;;1.77;;
15043;SDS011;7619;48.562;8.910;2023-08-01T04:00:49;2.30;;;1.60;;
15043;SDS011;7619;48.562;8.910;2023-08-01T04:03:17;2.07;;;1.50;;
15043;SDS011;7619;48.562;8.910;2023-08-01T04:05:45;2.23;;;1.70;;
15043;SDS011;7619;48.562;8.910;2023-08-01T04:08:14;3.33;;;1.90;;
15043;SDS011;7619;48.562;8.910;2023-08-01T04:10:42;3.77;;;1.90;;
15043;SDS011;7619;48.562;8.910;2023-08-01T04:13:10;1.80;;;1.53;;
15043;SDS011;7619;48.562;8.910;2023-08-01T04:15:38;1.90;;;1.70;;
15043;SDS011;7619;48.562;8.910;2023-08-01T04:18:06;1.80;;;1.47;;
15043;SDS011;7619;48.562;8.910;2023-08-01T04:20:34;2.93;;;1.30;;
15043;SDS011;7619;48.562;8.910;2023-08-01T04:23:02;2.67;;;1.70;;
15043;SDS011;7619;48.562;8.910;2023-08-01T04:25:30;3.23;;;2.17;;
15043;SDS011;7619;48.562;8.910;2023-08-01T04:27:58;4.23;;;2.20;;
15043;SDS011;7619;48.562;8.910;2023-08-01T04:30:26;2.63;;;1.90;;
15043;SDS011;7619;48.562;8.910;2023-08-01T04:32:54;2.53;;;1.67;;
15043;SDS011;7619;48.562;8.910;2023-08-01T04:35:22;1.70;;;1.60;;
15043;SDS011;7619;48.562;8.910;2023-08-01T04:37:50;3.83;;;1.97;;
15043;SDS011;7619;48.562;8.910;2023-08-01T04:40:18;2.03;;;1.43;;
15043;SDS011;7619;48.562;8.910;2023-08-01T04:42:46;2.73;;;1.83;;
15043;SDS011;7619;48.562;8.910;2023-08-01T04:45:14;1.40;;;1.30;;
15043;SDS011;7619;48.562;8.910;2023-08-01T04:47:42;3.67;;;2.00;;
15043;SDS011;7619;48.562;8.910;2023-08-01T04:50:10;4.47;;;1.80;;
15043;SDS011;7619;48.562;8.910;2023-08-01T04:52:38;3.13;;;2.10;;
15043;SDS011;7619;48.562;8.910;2023-08-01T04:55:07;5.33;;;1.93;;
15043;SDS011;7619;48.562;8.910;2023-08-01T04:57:35;1.87;;;1.60;;
15043;SDS011;7619;48.562;8.910;2023-08-01T05:00:04;2.60;;;1.83;;
15043;SDS011;7619;48.562;8.910;2023-08-01T05:02:32;3.27;;;2.40;;
15043;SDS011;7619;48.562;8.910;2023-08-01T05:05:00;4.10;;;2.10;;
15043;SDS011;7619;48.562;8.910;2023-08-01T05:07:28;4.93;;;2.03;;
15043;SDS011;7619;48.562;8.910;2023-08-01T05:09:56;2.87;;;1.73;;
15043;SDS011;7619;48.562;8.910;2023-08-01T05:15:01;4.43;;;2.00;;
15043;SDS011;7619;48.562;8.910;2023-08-01T05:17:30;3.30;;;2.10;;
15043;SDS011;7619;48.562;8.910;2023-08-01T05:19:58;3.43;;;2.03;;
15043;SDS011;7619;48.562;8.910;2023-08-01T05:22:26;1.37;;;1.23;;
15043;SDS011;7619;48.562;8.910;2023-08-01T05:24:54;3.80;;;1.90;;
15043;SDS011;7619;48.562;8.910;2023-08-01T05:27:22;3.57;;;2.13;;
15043;SDS011;7619;48.562;8.910;2023-08-01T05:29:50;2.90;;;1.80;;
15043;SDS011;7619;48.562;8.910;2023-08-01T05:32:18;2.47;;;1.70;;
15043;SDS011;7619;48.562;8.910;2023-08-01T05:34:47;3.40;;;2.17;;
15043;SDS011;7619;48.562;8.910;2023-08-01T05:37:15;2.97;;;1.77;;
15043;SDS011;7619;48.562;8.910;2023-08-01T05:39:43;1.67;;;1.53;;
15043;SDS011;7619;48.562;8.910;2023-08-01T05:42:11;2.30;;;1.93;;
15043;SDS011;7619;48.562;8.910;2023-08-01T05:44:39;2.40;;;1.80;;
15043;SDS011;7619;48.562;8.910;2023-08-01T05:47:07;2.30;;;1.70;;
15043;SDS011;7619;48.562;8.910;2023-08-01T05:49:35;3.77;;;1.97;;
15043;SDS011;7619;48.562;8.910;2023-08-01T05:52:04;2.80;;;1.90;;
15043;SDS011;7619;48.562;8.910;2023-08-01T05:54:32;2.43;;;1.93;;
15043;SDS011;7619;48.562;8.910;2023-08-01T05:57:00;1.83;;;1.40;;
15043;SDS011;7619;48.562;8.910;2023-08-01T05:59:28;2.97;;;1.87;;
15043;SDS011;7619;48.562;8.910;2023-08-01T06:01:56;2.27;;;1.63;;
15043;SDS011;7619;48.562;8.910;2023-08-01T06:04:24;2.63;;;1.57;;
15043;SDS011;7619;48.562;8.910;2023-08-01T06:06:52;5.00;;;1.77;;
15043;SDS011;7619;48.562;8.910;2023-08-01T06:09:20;1.83;;;1.63;;
15043;SDS011;7619;48.562;8.910;2023-08-01T06:11:49;1.83;;;1.50;;
15043;SDS011;7619;48.562;8.910;2023-08-01T06:14:17;2.13;;;1.60;;
15043;SDS011;7619;48.562;8.910;2023-08-01T06:16:45;2.03;;;1.40;;
15043;SDS011;7619;48.562;8.910;2023-08-01T06:19:13;2.63;;;1.80;;
15043;SDS011;7619;48.562;8.910;2023-08-01T06:21:41;1.40;;;1.30;;
15043;SDS011;7619;48.562;8.910;2023-08-01T06:24:09;3.07;;;2.03;;
15043;SDS011;7619;48.562;8.910;2023-08-01T06:26:38;3.53;;;1.77;;
15043;SDS011;7619;48.562;8.910;2023-08-01T06:29:06;1.97;;;1.67;;
15043;SDS011;7619;48.562;8.910;2023-08-01T06:31:34;2.10;;;1.73;;
15043;SDS011;7619;48.562;8.910;2023-08-01T06:34:02;2.20;;;1.40;;
15043;SDS011;7619;48.562;8.910;2023-08-01T06:36:30;3.07;;;1.40;;
15043;SDS011;7619;48.562;8.910;2023-08-01T06:38:59;2.17;;;1.40;;
15043;SDS011;7619;48.562;8.910;2023-08-01T06:41:27;2.03;;;1.73;;
15043;SDS011;7619;48.562;8.910;2023-08-01T06:43:55;3.23;;;1.63;;
15043;SDS011;7619;48.562;8.910;2023-08-01T06:46:23;1.93;;;1.63;;
15043;SDS011;7619;48.562;8.910;2023-08-01T06:48:51;3.30;;;2.03;;
15043;SDS011;7619;48.562;8.910;2023-08-01T06:51:19;2.07;;;1.43;;
15043;SDS011;7619;48.562;8.910;2023-08-01T06:53:48;2.13;;;1.60;;
15043;SDS011;7619;48.562;8.910;2023-08-01T06:56:16;4.97;;;1.83;;
15043;SDS011;7619;48.562;8.910;2023-08-01T06:58:44;3.03;;;2.10;;
15043;SDS011;7619;48.562;8.910;2023-08-01T07:01:13;3.23;;;2.20;;
15043;SDS011;7619;48.562;8.910;2023-08-01T07:03:41;1.70;;;1.50;;
15043;SDS011;7619;48.562;8.910;2023-08-01T07:06:09;2.17;;;1.87;;
15043;SDS011;7619;48.562;8.910;2023-08-01T07:08:37;4.07;;;2.73;;
15043;SDS011;7619;48.562;8.910;2023-08-01T07:11:06;3.63;;;2.60;;
15043;SDS011;7619;48.562;8.910;2023-08-01T07:13:34;3.40;;;2.37;;
15043;SDS011;7619;48.562;8.910;2023-08-01T07:16:02;3.23;;;1.97;;
15043;SDS011;7619;48.562;8.910;2023-08-01T07:18:30;4.27;;;3.00;;
15043;SDS011;7619;48.562;8.910;2023-08-01T07:21:02;4.60;;;2.67;;
15043;SDS011;7619;48.562;8.910;2023-08-01T07:23:30;2.37;;;1.97;;
15043;SDS011;7619;48.562;8.910;2023-08-01T07:25:59;3.97;;;1.93;;
15043;SDS011;7619;48.562;8.910;2023-08-01T07:28:27;2.00;;;1.57;;
15043;SDS011;7619;48.562;8.910;2023-08-01T07:30:58;2.77;;;1.73;;
15043;SDS011;7619;48.562;8.910;2023-08-01T07:33:26;2.73;;;1.90;;
15043;SDS011;7619;48.562;8.910;2023-08-01T07:35:54;2.13;;;1.70;;
15043;SDS011;7619;48.562;8.910;2023-08-01T07:38:23;2.30;;;1.40;;
15043;SDS011;7619;48.562;8.910;2023-08-01T07:40:51;3.17;;;1.77;;
15043;SDS011;7619;48.562;8.910;2023-08-01T07:43:19;1.63;;;1.47;;
15043;SDS011;7619;48.562;8.910;2023-08-01T07:45:47;2.33;;;1.50;;
15043;SDS011;7619;48.562;8.910;2023-08-01T07:48:17;2.03;;;1.57;;
15043;SDS011;7619;48.562;8.910;2023-08-01T07:50:45;3.33;;;1.93;;
15043;SDS011;7619;48.562;8.910;2023-08-01T07:53:13;2.37;;;1.87;;
15043;SDS011;7619;48.562;8.910;2023-08-01T07:55:41;1.80;;;1.43;;
15043;SDS011;7619;48.562;8.910;2023-08-01T07:58:09;1.70;;;1.60;;
15043;SDS011;7619;48.562;8.910;2023-08-01T08:00:37;2.30;;;1.80;;
15043;SDS011;7619;48.562;8.910;2023-08-01T08:03:05;2.00;;;1.47;;
15043;SDS011;7619;48.562;8.910;2023-08-01T08:05:35;3.17;;;1.80;;
15043;SDS011;7619;48.562;8.910;2023-08-01T08:08:05;3.57;;;1.53;;
15043;SDS011;7619;48.562;8.910;2023-08-01T08:10:33;5.27;;;1.93;;
15043;SDS011;7619;48.562;8.910;2023-08-01T08:13:01;3.13;;;1.90;;
15043;SDS011;7619;48.562;8.910;2023-08-01T08:15:29;2.87;;;1.97;;
15043;SDS011;7619;48.562;8.910;2023-08-01T08:17:59;2.53;;;1.70;;
15043;SDS011;7619;48.562;8.910;2023-08-01T08:20:27;1.83;;;1.50;;
15043;SDS011;7619;48.562;8.910;2023-08-01T08:22:55;2.20;;;1.50;;
15043;SDS011;7619;48.562;8.910;2023-08-01T08:25:23;3.67;;;2.13;;
15043;SDS011;7619;48.562;8.910;2023-08-01T08:27:51;1.87;;;1.53;;
15043;SDS011;7619;48.562;8.910;2023-08-01T08:30:19;2.60;;;1.47;;
15043;SDS011;7619;48.562;8.910;2023-08-01T08:32:47;3.10;;;2.00;;
15043;SDS011;7619;48.562;8.910;2023-08-01T08:35:16;2.83;;;1.53;;
15043;SDS011;7619;48.562;8.910;2023-08-01T08:37:44;1.33;;;1.13;;
15043;SDS011;7619;48.562;8.910;2023-08-01T08:40:12;3.73;;;1.57;;
15043;SDS011;7619;48.562;8.910;2023-08-01T08:42:40;1.43;;;1.30;;
15043;SDS011;7619;48.562;8.910;2023-08-01T08:45:09;1.97;;;1.40;;
15043;SDS011;7619;48.562;8.910;2023-08-01T08:47:38;1.40;;;1.30;;
15043;SDS011;7619;48.562;8.910;2023-08-01T08:50:07;2.23;;;1.30;;
15043;SDS011;7619;48.562;8.910;2023-08-01T08:52:35;1.73;;;1.33;;
15043;SDS011;7619;48.562;8.910;2023-08-01T08:55:04;0.97;;;0.90;;
15043;SDS011;7619;48.562;8.910;2023-08-01T08:57:33;1.03;;;0.67;;
15043;SDS011;7619;48.562;8.910;2023-08-01T09:00:02;0.83;;;0.80;;
15043;SDS011;7619;48.562;8.910;2023-08-01T09:02:32;2.40;;;0.87;;
15043;SDS011;7619;48.562;8.910;2023-08-01T09:05:00;0.80;;;0.80;;
15043;SDS011;7619;48.562;8.910;2023-08-01T09:07:29;2.83;;;0.80;;
15043;SDS011;7619;48.562;8.910;2023-08-01T09:09:58;1.40;;;0.80;;
15043;SDS011;7619;48.562;8.910;2023-08-01T09:12:26;0.77;;;0.70;;
15043;SDS011;7619;48.562;8.910;2023-08-01T09:14:54;1.70;;;0.70;;
15043;SDS011;7619;48.562;8.910;2023-08-01T09:17:24;0.60;;;0.60;;
15043;SDS011;7619;48.562;8.910;2023-08-01T09:19:55;0.80;;;0.70;;
15043;SDS011;7619;48.562;8.910;2023-08-01T09:22:24;0.63;;;0.50;;
15043;SDS011;7619;48.562;8.910;2023-08-01T09:24:52;0.53;;;0.53;;
15043;SDS011;7619;48.562;8.910;2023-08-01T09:27:21;2.10;;;0.83;;
15043;SDS011;7619;48.562;8.910;2023-08-01T09:29:50;0.40;;;0.40;;
15043;SDS011;7619;48.562;8.910;2023-08-01T09:32:18;1.17;;;0.40;;
15043;SDS011;7619;48.562;8.910;2023-08-01T09:34:46;0.57;;;0.47;;
15043;SDS011;7619;48.562;8.910;2023-08-01T09:37:14;0.57;;;0.40;;
15043;SDS011;7619;48.562;8.910;2023-08-01T09:39:42;0.20;;;0.20;;
15043;SDS011;7619;48.562;8.910;2023-08-01T09:42:12;1.13;;;0.50;;
15043;SDS011;7619;48.562;8.910;2023-08-01T09:44:44;0.80;;;0.30;;
15043;SDS011;7619;48.562;8.910;2023-08-01T09:47:10;2.37;;;0.47;;
15043;SDS011;7619;48.562;8.910;2023-08-01T09:49:46;0.40;;;0.40;;
15043;SDS011;7619;48.562;8.910;2023-08-01T09:52:08;1.17;;;0.43;;
15043;SDS011;7619;48.562;8.910;2023-08-01T09:54:36;0.10;;;0.10;;
15043;SDS011;7619;48.562;8.910;2023-08-01T09:57:04;0.23;;;0.23;;
15043;SDS011;7619;48.562;8.910;2023-08-01T09:59:33;1.70;;;0.40;;
15043;SDS011;7619;48.562;8.910;2023-08-01T10:02:01;0.70;;;0.50;;
15043;SDS011;7619;48.562;8.910;2023-08-01T10:04:30;0.27;;;0.27;;
15043;SDS011;7619;48.562;8.910;2023-08-01T10:07:01;0.20;;;0.20;;
15043;SDS011;7619;48.562;8.910;2023-08-01T10:09:30;0.20;;;0.20;;
15043;SDS011;7619;48.562;8.910;2023-08-01T10:11:58;0.20;;;0.20;;
15043;SDS011;7619;48.562;8.910;2023-08-01T10:14:27;0.13;;;0.13;;
15043;SDS011;7619;48.562;8.910;2023-08-01T10:16:55;0.10;;;0.10;;
15043;SDS011;7619;48.562;8.910;2023-08-01T10:19:24;0.73;;;0.23;;
15043;SDS011;7619;48.562;8.910;2023-08-01T10:21:53;0.20;;;0.20;;
15043;SDS011;7619;48.562;8.910;2023-08-01T10:24:21;0.10;;;0.10;;
15043;SDS011;7619;48.562;8.910;2023-08-01T10:26:50;0.20;;;0.20;;
15043;SDS011;7619;48.562;8.910;2023-08-01T10:29:18;0.33;;;0.30;;
15043;SDS011;7619;48.562;8.910;2023-08-01T10:31:53;0.27;;;0.27;;
15043;SDS011;7619;48.562;8.910;2023-08-01T10:34:21;0.20;;;0.20;;
15043;SDS011;7619;48.562;8.910;2023-08-01T10:36:55;0.20;;;0.20;;
15043;SDS011;7619;48.562;8.910;2023-08-01T10:39:24;0.30;;;0.30;;
15043;SDS011;7619;48.562;8.910;2023-08-01T10:41:59;0.30;;;0.30;;
15043;SDS011;7619;48.562;8.910;2023-08-01T10:44:27;0.30;;;0.30;;
15043;SDS011;7619;48.562;8.910;2023-08-01T10:46:58;0.40;;;0.40;;
15043;SDS011;7619;48.562;8.910;2023-08-01T10:49:33;0.20;;;0.20;;
15043;SDS011;7619;48.562;8.910;2023-08-01T10:52:02;0.20;;;0.20;;
15043;SDS011;7619;48.562;8.910;2023-08-01T10:54:30;0.57;;;0.40;;
15043;SDS011;7619;48.562;8.910;2023-08-01T10:56:59;0.20;;;0.20;;
15043;SDS011;7619;48.562;8.910;2023-08-01T10:59:28;0.40;;;0.40;;
15043;SDS011;7619;48.562;8.910;2023-08-01T11:01:57;0.43;;;0.43;;
15043;SDS011;7619;48.562;8.910;2023-08-01T11:04:26;0.73;;;0.63;;
15043;SDS011;7619;48.562;8.910;2023-08-01T11:06:54;0.77;;;0.50;;
15043;SDS011;7619;48.562;8.910;2023-08-01T11:09:23;0.40;;;0.40;;
15043;SDS011;7619;48.562;8.910;2023-08-01T11:11:52;0.50;;;0.50;;
15043;SDS011;7619;48.562;8.910;2023-08-01T11:14:20;0.50;;;0.50;;
15043;SDS011;7619;48.562;8.910;2023-08-01T11:16:49;0.53;;;0.53;;
15043;SDS011;7619;48.562;8.910;2023-08-01T11:19:18;0.60;;;0.60;;
15043;SDS011;7619;48.562;8.910;2023-08-01T11:21:46;0.53;;;0.53;;
15043;SDS011;7619;48.562;8.910;2023-08-01T11:24:15;0.47;;;0.40;;
15043;SDS011;7619;48.562;8.910;2023-08-01T11:26:43;0.50;;;0.50;;
15043;SDS011;7619;48.562;8.910;2023-08-01T11:29:12;3.53;;;0.77;;
15043;SDS011;7619;48.562;8.910;2023-08-01T11:31:40;1.17;;;0.60;;
15043;SDS011;7619;48.562;8.910;2023-08-01T11:34:08;0.60;;;0.60;;
15043;SDS011;7619;48.562;8.910;2023-08-01T11:36:37;0.47;;;0.47;;
15043;SDS011;7619;48.562;8.910;2023-08-01T11:39:05;0.70;;;0.60;;
15043;SDS011;7619;48.562;8.910;2023-08-01T11:41:33;1.30;;;0.70;;
15043;SDS011;7619;48.562;8.910;2023-08-01T11:44:02;0.67;;;0.60;;
15043;SDS011;7619;48.562;8.910;2023-08-01T11:46:31;0.67;;;0.63;;
15043;SDS011;7619;48.562;8.910;2023-08-01T11:48:59;0.50;;;0.50;;
15043;SDS011;7619;48.562;8.910;2023-08-01T11:51:28;1.27;;;0.80;;
15043;SDS011;7619;48.562;8.910;2023-08-01T11:54:00;0.60;;;0.60;;
15043;SDS011;7619;48.562;8.910;2023-08-01T11:56:28;0.73;;;0.50;;
15043;SDS011;7619;48.562;8.910;2023-08-01T11:58:56;0.57;;;0.57;;
15043;SDS011;7619;48.562;8.910;2023-08-01T12:01:25;0.50;;;0.50;;
15043;SDS011;7619;48.562;8.910;2023-08-01T12:03:53;0.40;;;0.40;;
15043;SDS011;7619;48.562;8.910;2023-08-01T12:06:22;0.47;;;0.47;;
15043;SDS011;7619;48.562;8.910;2023-08-01T12:08:51;1.33;;;0.80;;
15043;SDS011;7619;48.562;8.910;2023-08-01T12:11:20;0.80;;;0.60;;
15043;SDS011;7619;48.562;8.910;2023-08-01T12:13:48;0.87;;;0.87;;
15043;SDS011;7619;48.562;8.910;2023-08-01T12:16:16;0.63;;;0.60;;
15043;SDS011;7619;48.562;8.910;2023-08-01T12:18:46;0.43;;;0.43;;
15043;SDS011;7619;48.562;8.910;2023-08-01T12:21:15;0.47;;;0.47;;
15043;SDS011;7619;48.562;8.910;2023-08-01T12:23:43;0.57;;;0.57;;
15043;SDS011;7619;48.562;8.910;2023-08-01T12:26:11;0.70;;;0.70;;
15043;SDS011;7619;48.562;8.910;2023-08-01T12:28:39;0.60;;;0.60;;
15043;SDS011;7619;48.562;8.910;2023-08-01T12:31:07;1.23;;;0.80;;
15043;SDS011;7619;48.562;8.910;2023-08-01T12:33:35;0.67;;;0.67;;
15043;SDS011;7619;48.562;8.910;2023-08-01T12:36:03;1.03;;;0.57;;
15043;SDS011;7619;48.562;8.910;2023-08-01T12:38:32;0.60;;;0.60;;
15043;SDS011;7619;48.562;8.910;2023-08-01T12:41:00;0.60;;;0.60;;
15043;SDS011;7619;48.562;8.910;2023-08-01T12:43:28;0.93;;;0.67;;
15043;SDS011;7619;48.562;8.910;2023-08-01T12:45:56;0.90;;;0.60;;
15043;SDS011;7619;48.562;8.910;2023-08-01T12:48:25;1.30;;;0.97;;
15043;SDS011;7619;48.562;8.910;2023-08-01T12:50:53;0.50;;;0.50;;
15043;SDS011;7619;48.562;8.910;2023-08-01T12:53:21;1.03;;;0.53;;
15043;SDS011;7619;48.562;8.910;2023-08-01T12:55:50;0.90;;;0.90;;
15043;SDS011;7619;48.562;8.910;2023-08-01T12:58:18;0.93;;;0.83;;
15043;SDS011;7619;48.562;8.910;2023-08-01T13:00:46;0.60;;;0.60;;
15043;SDS011;7619;48.562;8.910;2023-08-01T13:03:14;1.63;;;0.77;;
15043;SDS011;7619;48.562;8.910;2023-08-01T13:05:42;0.60;;;0.60;;
15043;SDS011;7619;48.562;8.910;2023-08-01T13:08:10;0.53;;;0.50;;
15043;SDS011;7619;48.562;8.910;2023-08-01T13:10:39;0.90;;;0.70;;
15043;SDS011;7619;48.562;8.910;2023-08-01T13:13:07;0.57;;;0.57;;
15043;SDS011;7619;48.562;8.910;2023-08-01T13:15:35;0.67;;;0.57;;
15043;SDS011;7619;48.562;8.910;2023-08-01T13:18:03;0.53;;;0.53;;
15043;SDS011;7619;48.562;8.910;2023-08-01T13:20:31;0.80;;;0.80;;
15043;SDS011;7619;48.562;8.910;2023-08-01T13:22:59;0.90;;;0.70;;
15043;SDS011;7619;48.562;8.910;2023-08-01T13:25:27;0.43;;;0.43;;
15043;SDS011;7619;48.562;8.910;2023-08-01T13:27:55;0.57;;;0.57;;
15043;SDS011;7619;48.562;8.910;2023-08-01T13:30:23;0.53;;;0.53;;
15043;SDS011;7619;48.562;8.910;2023-08-01T13:32:51;0.70;;;0.60;;
15043;SDS011;7619;48.562;8.910;2023-08-01T13:35:19;0.47;;;0.47;;
15043;SDS011;7619;48.562;8.910;2023-08-01T13:37:47;1.23;;;0.57;;
15043;SDS011;7619;48.562;8.910;2023-08-01T13:40:16;0.73;;;0.73;;
15043;SDS011;7619;48.562;8.910;2023-08-01T13:42:44;0.40;;;0.40;;
15043;SDS011;7619;48.562;8.910;2023-08-01T13:45:12;0.60;;;0.60;;
15043;SDS011;7619;48.562;8.910;2023-08-01T13:47:40;0.40;;;0.40;;
15043;SDS011;7619;48.562;8.910;2023-08-01T13:50:08;1.83;;;0.80;;
15043;SDS011;7619;48.562;8.910;2023-08-01T13:52:37;0.77;;;0.73;;
15043;SDS011;7619;48.562;8.910;2023-08-01T13:55:06;1.60;;;0.97;;
15043;SDS011;7619;48.562;8.910;2023-08-01T13:57:34;0.73;;;0.57;;
15043;SDS011;7619;48.562;8.910;2023-08-01T14:00:02;0.70;;;0.70;;
15043;SDS011;7619;48.562;8.910;2023-08-01T14:02:30;0.60;;;0.60;;
15043;SDS011;7619;48.562;8.910;2023-08-01T14:04:58;0.30;;;0.30;;
15043;SDS011;7619;48.562;8.910;2023-08-01T14:07:26;1.87;;;1.00;;
15043;SDS011;7619;48.562;8.910;2023-08-01T14:09:54;0.90;;;0.83;;
15043;SDS011;7619;48.562;8.910;2023-08-01T14:12:22;0.40;;;0.40;;
15043;SDS011;7619;48.562;8.910;2023-08-01T14:14:51;0.93;;;0.70;;
15043;SDS011;7619;48.562;8.910;2023-08-01T14:17:19;0.60;;;0.60;;
15043;SDS011;7619;48.562;8.910;2023-08-01T14:19:47;1.50;;;0.83;;
15043;SDS011;7619;48.562;8.910;2023-08-01T14:22:15;1.07;;;0.70;;
15043;SDS011;7619;48.562;8.910;2023-08-01T14:24:43;0.60;;;0.60;;
15043;SDS011;7619;48.562;8.910;2023-08-01T14:27:12;0.50;;;0.50;;
15043;SDS011;7619;48.562;8.910;2023-08-01T14:29:40;0.90;;;0.90;;
15043;SDS011;7619;48.562;8.910;2023-08-01T14:32:08;0.80;;;0.80;;
15043;SDS011;7619;48.562;8.910;2023-08-01T14:34:36;0.50;;;0.50;;
15043;SDS011;7619;48.562;8.910;2023-08-01T14:37:05;1.33;;;0.90;;
15043;SDS011;7619;48.562;8.910;2023-08-01T14:39:33;0.40;;;0.40;;
15043;SDS011;7619;48.562;8.910;2023-08-01T14:42:01;0.87;;;0.70;;
15043;SDS011;7619;48.562;8.910;2023-08-01T14:44:29;1.43;;;0.70;;
15043;SDS011;7619;48.562;8.910;2023-08-01T14:46:57;2.23;;;0.80;;
15043;SDS011;7619;48.562;8.910;2023-08-01T14:49:25;0.50;;;0.50;;
15043;SDS011;7619;48.562;8.910;2023-08-01T14:51:56;0.90;;;0.80;;
15043;SDS011;7619;48.562;8.910;2023-08-01T14:54:24;0.57;;;0.57;;
15043;SDS011;7619;48.562;8.910;2023-08-01T14:56:52;0.40;;;0.40;;
15043;SDS011;7619;48.562;8.910;2023-08-01T14:59:20;0.40;;;0.40;;
15043;SDS011;7619;48.562;8.910;2023-08-01T15:01:48;3.20;;;1.00;;
15043;SDS011;7619;48.562;8.910;2023-08-01T15:04:16;0.40;;;0.40;;
15043;SDS011;7619;48.562;8.910;2023-08-01T15:06:44;1.90;;;0.50;;
15043;SDS011;7619;48.562;8.910;2023-08-01T15:09:12;1.33;;;0.60;;